Time;durP1;ratioP1;P1;durP2;ratioP2;P2;SDS_P1;SDS_P2;PMS_P1;PMS_P2;Temp;Humidity;BMP_temperature;BMP_pressure;BME280_temperature;BME280_humidity;BME280_pressure;Samples;Min_cycle;Max_cycle;Signal;HPM_P1;HPM_P2
2022/10/22 00:02:21;;;;;;;11.33;5.13;;;;;;;0.10;100.00;100794.38;1677478;85;21128;-76
2022/10/22 00:04:48;;;;;;;11.63;5.43;;;;;;;0.08;100.00;100790.48;1664550;85;21053;-78
2022/10/22 00:07:16;;;;;;;9.27;5.10;;;;;;;0.08;100.00;100785.16;1663580;86;21507;-77
2022/10/22 00:09:44;;;;;;;12.60;5.37;;;;;;;0.08;100.00;100780.31;1663398;86;21519;-77
2022/10/22 00:12:11;;;;;;;14.43;5.83;;;;;;;0.07;100.00;100771.49;1663725;86;21014;-77
2022/10/22 00:14:38;;;;;;;11.23;5.67;;;;;;;0.09;100.00;100773.59;1663266;85;21078;-76
2022/10/22 00:17:05;;;;;;;10.67;5.40;;;;;;;0.08;100.00;100769.20;1663665;86;21061;-78
2022/10/22 00:19:33;;;;;;;13.00;5.80;;;;;;;0.07;100.00;100762.19;1663484;86;21050;-75
2022/10/22 00:22:04;;;;;;;13.43;6.07;;;;;;;0.07;100.00;100762.19;1663347;86;21050;-77
2022/10/22 00:24:29;;;;;;;12.73;6.17;;;;;;;0.06;100.00;100763.11;1663377;86;21503;-75
2022/10/22 00:26:57;;;;;;;14.73;5.97;;;;;;;0.05;100.00;100762.72;1663402;86;21049;-76
2022/10/22 00:29:23;;;;;;;11.60;5.37;;;;;;;0.04;100.00;100764.16;1663380;86;21046;-76
2022/10/22 00:31:50;;;;;;;11.03;5.40;;;;;;;0.05;100.00;100764.05;1663752;86;21535;-76
2022/10/22 00:34:20;;;;;;;16.17;6.50;;;;;;;0.05;100.00;100757.40;1653961;86;21052;-77
2022/10/22 00:36:48;;;;;;;15.30;6.57;;;;;;;0.03;100.00;100750.46;1639103;86;21067;-77
2022/10/22 00:39:15;;;;;;;16.17;7.13;;;;;;;0.02;100.00;100750.06;1649123;86;21528;-75
2022/10/22 00:41:44;;;;;;;17.53;7.57;;;;;;;0.01;100.00;100750.55;1646387;86;21090;-77
2022/10/22 00:45:08;;;;;;;16.63;7.87;;;;;;;0.03;100.00;100755.78;1637191;86;21647;-76
2022/10/22 00:47:50;;;;;;;18.30;7.87;;;;;;;0.04;100.00;100754.37;1641009;86;21086;-76
2022/10/22 00:50:22;;;;;;;18.73;8.83;;;;;;;0.03;100.00;100742.48;1636979;86;21050;-78
2022/10/22 00:52:50;;;;;;;23.03;10.30;;;;;;;-0.01;100.00;100739.14;1611931;88;21092;-76
2022/10/22 00:55:17;;;;;;;26.07;11.33;;;;;;;-0.02;100.00;100743.61;1607755;89;21016;-77
2022/10/22 00:57:44;;;;;;;26.27;11.47;;;;;;;-0.01;100.00;100738.66;1607696;89;21044;-77
2022/10/22 01:00:12;;;;;;;25.03;12.13;;;;;;;0.04;100.00;100731.77;1610728;89;21111;-75
2022/10/22 01:02:39;;;;;;;22.93;10.80;;;;;;;0.06;100.00;100740.99;1627534;85;21042;-76
2022/10/22 01:05:07;;;;;;;26.77;11.33;;;;;;;0.08;100.00;100733.78;1657912;85;21103;-77
2022/10/22 01:07:48;;;;;;;29.40;11.53;;;;;;;0.09;100.00;100728.83;1633556;88;21072;-77
2022/10/22 01:10:36;;;;;;;21.37;10.07;;;;;;;0.08;100.00;100726.65;1650306;85;21106;-78
2022/10/22 01:13:26;;;;;;;21.60;10.07;;;;;;;0.08;100.00;100727.13;1640568;85;21094;-77
2022/10/22 01:16:11;;;;;;;23.30;10.10;;;;;;;0.10;100.00;100717.26;1590499;88;21611;-76
2022/10/22 01:19:02;;;;;;;21.57;10.37;;;;;;;0.11;100.00;100724.30;1593062;89;21073;-77
2022/10/22 01:21:34;;;;;;;23.03;10.40;;;;;;;0.15;100.00;100723.17;1591097;89;21074;-77
2022/10/22 01:24:12;;;;;;;19.60;9.57;;;;;;;0.19;100.00;100726.03;1585166;88;21102;-76
2022/10/22 01:26:54;;;;;;;22.70;9.77;;;;;;;0.21;100.00;100724.63;1544748;92;21087;-78
2022/10/22 01:29:31;;;;;;;21.07;8.80;;;;;;;0.22;100.00;100715.23;1552492;90;21082;-77
2022/10/22 01:32:06;;;;;;;18.70;7.83;;;;;;;0.24;100.00;100703.17;1544332;92;21525;-77
2022/10/22 01:34:32;;;;;;;16.10;6.97;;;;;;;0.24;100.00;100708.02;1555056;90;21071;-77
2022/10/22 01:36:59;;;;;;;15.27;6.90;;;;;;;0.27;100.00;100705.19;1565386;90;21564;-76
2022/10/22 01:39:27;;;;;;;13.70;6.27;;;;;;;0.29;100.00;100721.91;1565529;90;21048;-77
2022/10/22 01:41:56;;;;;;;11.57;5.93;;;;;;;0.31;100.00;100717.84;1559447;90;21111;-77
2022/10/22 01:44:32;;;;;;;8.97;4.77;;;;;;;0.33;100.00;100727.42;1565363;89;21106;-77
2022/10/22 01:47:33;;;;;;;9.20;5.20;;;;;;;0.40;100.00;100727.09;1574035;90;21081;-77
2022/10/22 01:50:33;;;;;;;9.17;5.33;;;;;;;0.44;100.00;100729.46;1565559;90;21559;-76
2022/10/22 01:53:38;;;;;;;12.00;5.87;;;;;;;0.48;100.00;100726.15;1575630;91;21640;-77
2022/10/22 01:56:51;;;;;;;10.70;5.10;;;;;;;0.49;100.00;100722.55;1579620;89;21132;-78
2022/10/22 01:59:44;;;;;;;7.72;4.20;;;;;;;0.48;100.00;100722.16;1579537;91;21098;-77
2022/10/22 02:02:32;;;;;;;8.70;4.12;;;;;;;0.52;100.00;100723.23;1578699;90;21302;-75
2022/10/22 02:05:11;;;;;;;7.30;4.00;;;;;;;0.54;100.00;100719.16;1576809;88;21079;-77
2022/10/22 02:07:48;;;;;;;9.00;4.40;;;;;;;0.56;100.00;100722.58;1592315;89;21063;-77
2022/10/22 02:10:15;;;;;;;9.40;4.73;;;;;;;0.59;100.00;100720.23;1529014;91;21147;-77
2022/10/22 02:12:45;;;;;;;10.37;4.97;;;;;;;0.61;100.00;100721.84;1526590;91;21575;-75
2022/10/22 02:15:13;;;;;;;9.80;4.60;;;;;;;0.64;100.00;100716.79;1523789;91;21165;-77
2022/10/22 02:17:40;;;;;;;7.33;3.90;;;;;;;0.67;100.00;100716.62;1527649;91;21083;-77
2022/10/22 02:20:16;;;;;;;8.63;4.60;;;;;;;0.68;100.00;100724.52;1510025;92;21066;-78
2022/10/22 02:22:44;;;;;;;7.67;4.30;;;;;;;0.70;100.00;100719.11;1509114;89;21180;-77
2022/10/22 02:25:11;;;;;;;9.33;4.20;;;;;;;0.69;100.00;100722.25;1569165;89;21162;-77
2022/10/22 02:27:46;;;;;;;10.53;5.33;;;;;;;0.67;100.00;100724.12;1578533;90;21140;-75
2022/10/22 02:30:19;;;;;;;11.53;5.50;;;;;;;0.66;100.00;100717.10;1580411;89;21123;-76
2022/10/22 02:33:00;;;;;;;9.90;5.00;;;;;;;0.66;100.00;100721.09;1579767;89;21576;-73
2022/10/22 02:35:28;;;;;;;11.53;5.10;;;;;;;0.65;100.00;100717.19;1615453;87;21118;-77
2022/10/22 02:37:56;;;;;;;11.40;5.20;;;;;;;0.65;100.00;100714.52;1625334;88;21606;-78
2022/10/22 02:40:23;;;;;;;8.53;4.60;;;;;;;0.65;100.00;100714.52;1624741;86;21065;-75
2022/10/22 02:42:50;;;;;;;8.73;4.77;;;;;;;0.64;100.00;100721.66;1624517;86;21058;-78
2022/10/22 02:45:18;;;;;;;10.10;4.57;;;;;;;0.63;100.00;100720.42;1624447;86;21073;-76
2022/10/22 02:47:44;;;;;;;9.53;5.30;;;;;;;0.61;100.00;100720.98;1624765;87;21049;-77
2022/10/22 02:50:12;;;;;;;10.67;4.43;;;;;;;0.59;100.00;100716.23;1624638;87;21098;-76
2022/10/22 02:52:40;;;;;;;12.67;5.03;;;;;;;0.57;100.00;100725.64;1601959;88;21081;-77
2022/10/22 02:55:07;;;;;;;8.43;4.80;;;;;;;0.54;100.00;100729.31;1596119;90;21622;-75
2022/10/22 02:57:34;;;;;;;9.57;4.87;;;;;;;0.53;100.00;100730.28;1596316;88;21126;-76
2022/10/22 03:00:01;;;;;;;10.43;5.37;;;;;;;0.51;100.00;100729.97;1580061;88;21569;-77
2022/10/22 03:02:28;;;;;;;10.97;5.70;;;;;;;0.47;100.00;100730.62;1592904;89;21078;-77
2022/10/22 03:04:57;;;;;;;11.03;5.23;;;;;;;0.44;100.00;100731.28;1595135;90;21126;-79
2022/10/22 03:07:24;;;;;;;10.90;5.33;;;;;;;0.40;100.00;100733.26;1593915;90;21150;-76
2022/10/22 03:09:50;;;;;;;12.30;5.30;;;;;;;0.37;100.00;100742.73;1574727;89;21071;-77
2022/10/22 03:12:18;;;;;;;9.90;5.13;;;;;;;0.33;100.00;100746.53;1559659;90;21109;-77
2022/10/22 03:14:47;;;;;;;12.17;5.30;;;;;;;0.29;100.00;100744.52;1584073;88;21581;-77
2022/10/22 03:17:14;;;;;;;10.70;5.07;;;;;;;0.26;100.00;100743.36;1570135;89;21167;-76
2022/10/22 03:19:41;;;;;;;11.03;5.27;;;;;;;0.25;100.00;100743.44;1620495;86;21031;-77
2022/10/22 03:22:17;;;;;;;11.60;5.63;;;;;;;0.25;100.00;100747.43;1650600;86;21540;-76
2022/10/22 03:24:46;;;;;;;12.23;5.50;;;;;;;0.22;100.00;100740.50;1639397;87;21066;-77
2022/10/22 03:27:14;;;;;;;13.10;5.50;;;;;;;0.19;100.00;100744.66;1640431;86;21081;-77
2022/10/22 03:29:41;;;;;;;11.30;5.10;;;;;;;0.16;100.00;100740.83;1640769;83;21065;-77
2022/10/22 03:32:08;;;;;;;13.30;5.37;;;;;;;0.13;100.00;100741.03;1628555;87;21552;-77
2022/10/22 03:34:35;;;;;;;10.70;5.07;;;;;;;0.12;100.00;100740.62;1636259;85;21043;-77
2022/10/22 03:37:03;;;;;;;12.33;5.20;;;;;;;0.12;100.00;100741.96;1674675;82;21087;-76
2022/10/22 03:39:31;;;;;;;10.47;4.90;;;;;;;0.12;100.00;100740.15;1691724;83;21081;-77
2022/10/22 03:41:59;;;;;;;13.97;5.30;;;;;;;0.12;100.00;100737.97;1679067;84;21077;-76
2022/10/22 03:44:26;;;;;;;12.40;5.47;;;;;;;0.13;100.00;100739.70;1677935;84;21058;-77
2022/10/22 03:46:53;;;;;;;11.60;5.60;;;;;;;0.12;100.00;100736.16;1667919;83;21079;-76
2022/10/22 03:49:21;;;;;;;11.90;5.53;;;;;;;0.12;100.00;100739.30;1677882;82;21129;-76
2022/10/22 03:51:48;;;;;;;12.43;5.57;;;;;;;0.14;100.00;100745.38;1682021;84;21041;-78
2022/10/22 03:54:15;;;;;;;12.70;5.90;;;;;;;0.14;100.00;100736.08;1669421;86;21003;-77
2022/10/22 03:56:42;;;;;;;15.83;5.90;;;;;;;0.17;100.00;100737.23;1657094;86;21599;-76
2022/10/22 03:59:09;;;;;;;13.40;5.77;;;;;;;0.19;100.00;100736.67;1660494;86;21820;-77
2022/10/22 04:01:37;;;;;;;11.57;5.53;;;;;;;0.18;100.00;100739.81;1655432;85;21009;-76
2022/10/22 04:04:04;;;;;;;12.10;5.50;;;;;;;0.21;100.00;100733.94;1664556;86;21003;-77
2022/10/22 04:06:31;;;;;;;13.67;5.47;;;;;;;0.23;100.00;100740.89;1663638;86;21575;-77
2022/10/22 04:09:01;;;;;;;12.77;5.60;;;;;;;0.25;100.00;100732.80;1662284;85;21061;-76
2022/10/22 04:11:27;;;;;;;14.13;6.33;;;;;;;0.25;100.00;100735.02;1661518;83;21024;-76
2022/10/22 04:13:56;;;;;;;15.43;6.47;;;;;;;0.28;100.00;100738.80;1668111;85;21035;-77
2022/10/22 04:16:22;;;;;;;16.63;7.53;;;;;;;0.31;100.00;100734.64;1655792;86;21093;-77
2022/10/22 04:18:49;;;;;;;14.53;6.27;;;;;;;0.34;100.00;100729.16;1659824;86;21054;-77
2022/10/22 04:21:17;;;;;;;12.00;5.83;;;;;;;0.38;100.00;100735.16;1656436;86;20992;-77
2022/10/22 04:23:50;;;;;;;15.33;5.97;;;;;;;0.41;100.00;100729.66;1668751;86;21043;-76
2022/10/22 04:26:17;;;;;;;13.33;6.07;;;;;;;0.45;100.00;100729.02;1665870;86;21138;-76
2022/10/22 04:28:45;;;;;;;15.13;6.37;;;;;;;0.49;100.00;100726.06;1664340;86;21046;-77
2022/10/22 04:31:17;;;;;;;17.40;6.77;;;;;;;0.53;100.00;100724.95;1668641;86;21522;-76
2022/10/22 04:33:44;;;;;;;13.13;6.30;;;;;;;0.58;100.00;100721.16;1663967;86;21018;-77
2022/10/22 04:36:15;;;;;;;15.47;6.53;;;;;;;0.60;100.00;100725.91;1663350;86;21023;-76
2022/10/22 04:38:44;;;;;;;15.83;7.23;;;;;;;0.64;100.00;100712.80;1593944;89;21048;-76
2022/10/22 04:41:13;;;;;;;17.67;7.40;;;;;;;0.64;100.00;100712.80;1598477;89;21519;-77
2022/10/22 04:43:40;;;;;;;17.00;7.27;;;;;;;0.68;100.00;100717.86;1582725;89;21107;-78
2022/10/22 04:46:08;;;;;;;19.10;7.27;;;;;;;0.70;100.00;100716.45;1600877;89;21039;-78
2022/10/22 04:48:38;;;;;;;15.43;6.77;;;;;;;0.73;100.00;100714.45;1598590;89;21042;-74
2022/10/22 04:51:06;;;;;;;13.33;6.47;;;;;;;0.80;100.00;100721.61;1588224;89;21163;-76
2022/10/22 04:53:37;;;;;;;14.83;6.93;;;;;;;0.86;100.00;100728.37;1576243;88;21082;-74
2022/10/22 04:56:22;;;;;;;18.27;7.70;;;;;;;0.92;100.00;100715.55;1568511;88;21520;-76
2022/10/22 04:58:58;;;;;;;17.57;7.23;;;;;;;1.02;100.00;100727.81;1575043;89;21115;-75
2022/10/22 05:01:35;;;;;;;15.77;7.27;;;;;;;1.13;100.00;100730.70;1593758;89;21146;-75
2022/10/22 05:04:03;;;;;;;17.80;7.20;;;;;;;1.23;100.00;100726.98;1549564;92;21049;-75
2022/10/22 05:06:31;;;;;;;20.20;8.53;;;;;;;1.33;100.00;100723.29;1578564;90;21031;-75
2022/10/22 05:09:01;;;;;;;19.10;8.90;;;;;;;1.42;100.00;100721.87;1584636;87;21098;-77
2022/10/22 05:11:32;;;;;;;15.50;7.40;;;;;;;1.50;100.00;100721.73;1584997;90;21132;-75
2022/10/22 05:14:01;;;;;;;22.27;9.73;;;;;;;1.55;100.00;100722.80;1550280;92;21062;-75
2022/10/22 05:16:28;;;;;;;19.63;9.00;;;;;;;1.63;100.00;100719.63;1545134;93;21175;-76
2022/10/22 05:18:56;;;;;;;20.50;9.00;;;;;;;1.69;100.00;100720.59;1554415;92;21627;-74
2022/10/22 05:21:23;;;;;;;192.37;104.33;;;;;;;1.74;100.00;100717.65;1576368;90;21092;-77
2022/10/22 05:23:53;;;;;;;220.47;110.67;;;;;;;1.80;100.00;100715.42;1581338;89;21171;-78
2022/10/22 05:26:21;;;;;;;28.43;16.80;;;;;;;1.89;100.00;100713.98;1577291;90;21062;-80
2022/10/22 05:28:49;;;;;;;26.17;12.90;;;;;;;1.98;100.00;100717.38;1580381;90;21137;-75
2022/10/22 05:31:17;;;;;;;23.63;11.00;;;;;;;2.04;100.00;100714.81;1581542;89;21533;-75
2022/10/22 05:33:45;;;;;;;22.40;10.50;;;;;;;2.10;100.00;100711.73;1574936;90;21063;-75
2022/10/22 05:36:15;;;;;;;22.73;9.67;;;;;;;2.15;100.00;100710.11;1568900;91;21079;-76
2022/10/22 05:38:43;;;;;;;96.03;49.53;;;;;;;2.22;100.00;100708.75;1534622;93;21120;-73
2022/10/22 05:41:13;;;;;;;56.97;32.10;;;;;;;2.31;100.00;100703.28;1544824;90;21178;-76
2022/10/22 05:43:42;;;;;;;36.80;18.07;;;;;;;2.45;100.00;100708.55;1577717;89;21076;-75
2022/10/22 05:46:15;;;;;;;25.80;12.43;;;;;;;2.58;100.00;100701.42;1563155;91;21041;-75
2022/10/22 05:48:55;;;;;;;24.47;11.67;;;;;;;2.69;100.00;100703.36;1580096;90;21091;-75
2022/10/22 05:51:23;;;;;;;21.30;9.67;;;;;;;2.81;100.00;100711.03;1579568;90;21113;-75
2022/10/22 05:53:56;;;;;;;21.00;9.13;;;;;;;2.91;100.00;100708.11;1548562;92;21111;-76
2022/10/22 05:56:23;;;;;;;20.02;9.38;;;;;;;3.00;100.00;100706.12;1548730;91;21578;-77
2022/10/22 05:58:50;;;;;;;18.87;8.93;;;;;;;3.07;100.00;100706.56;1548397;92;21593;-75
2022/10/22 06:01:23;;;;;;;18.57;8.57;;;;;;;3.15;100.00;100702.02;1575874;89;21043;-74
2022/10/22 06:03:55;;;;;;;16.93;7.80;;;;;;;3.25;100.00;100698.23;1578088;90;21095;-76
2022/10/22 06:06:30;;;;;;;17.40;7.43;;;;;;;3.38;100.00;100694.59;1502995;94;21133;-75
2022/10/22 06:09:11;;;;;;;17.53;7.23;;;;;;;3.50;100.00;100688.83;1505676;94;21105;-75
2022/10/22 06:11:38;;;;;;;18.00;7.57;;;;;;;3.63;100.00;100685.28;1492994;95;21551;-75
2022/10/22 06:14:05;;;;;;;16.73;6.27;;;;;;;3.77;100.00;100679.31;1485888;95;21155;-76
2022/10/22 06:16:32;;;;;;;17.40;7.47;;;;;;;3.95;100.00;100670.92;1481743;95;21064;-76
2022/10/22 06:19:00;;;;;;;14.77;7.23;;;;;;;4.11;100.00;100674.16;1481765;95;21120;-75
2022/10/22 06:21:31;;;;;;;14.20;6.97;;;;;;;4.30;100.00;100667.42;1444627;95;21191;-75
2022/10/22 06:24:02;;;;;;;;;;;;;;;4.51;100.00;100660.92;1482753;95;21707;-76
2022/10/22 06:26:29;;;;;;;16.40;6.77;;;;;;;4.74;100.00;100665.86;1493663;95;20112;-72
2022/10/22 06:28:58;;;;;;;15.40;6.93;;;;;;;4.98;100.00;100655.57;1486410;94;21104;-74
2022/10/22 06:31:25;;;;;;;14.70;6.17;;;;;;;5.21;100.00;100645.22;1491670;95;21296;-75
2022/10/22 06:33:53;;;;;;;13.93;6.57;;;;;;;5.47;100.00;100640.93;1487613;95;21662;-77
2022/10/22 06:36:22;;;;;;;16.93;8.10;;;;;;;5.69;100.00;100635.54;1499207;95;21141;-76
2022/10/22 06:38:52;;;;;;;17.30;7.50;;;;;;;5.90;100.00;100637.45;1496311;93;21124;-77
2022/10/22 06:41:19;;;;;;;15.17;6.97;;;;;;;6.10;100.00;100630.95;1498376;94;21165;-73
2022/10/22 06:43:48;;;;;;;11.83;6.17;;;;;;;6.30;100.00;100624.75;1499767;94;21582;-76
2022/10/22 06:46:18;;;;;;;15.00;5.83;;;;;;;6.48;100.00;100619.69;1497645;95;21104;-77
2022/10/22 06:48:50;;;;;;;13.13;6.50;;;;;;;6.74;100.00;100617.92;1485196;95;21451;-75
2022/10/22 06:51:17;;;;;;;10.63;5.77;;;;;;;6.97;100.00;100611.40;1485933;95;21094;-75
2022/10/22 06:53:44;;;;;;;15.20;7.03;;;;;;;7.10;100.00;100613.89;1504681;94;21127;-79
2022/10/22 06:56:15;;;;;;;14.70;6.53;;;;;;;7.09;100.00;100607.30;1508513;94;21582;-76
2022/10/22 06:58:42;;;;;;;13.07;5.77;;;;;;;6.98;100.00;100605.55;1500232;94;21118;-74
2022/10/22 07:01:12;;;;;;;13.27;5.87;;;;;;;6.99;100.00;100617.99;1511705;93;21115;-77
2022/10/22 07:03:39;;;;;;;14.17;6.27;;;;;;;7.07;100.00;100611.97;1526754;91;21603;-78
2022/10/22 07:06:09;;;;;;;13.43;6.07;;;;;;;7.17;100.00;100620.43;1537034;91;21101;-78
2022/10/22 07:08:36;;;;;;;11.47;5.47;;;;;;;7.22;100.00;100623.57;1540670;91;21126;-78
2022/10/22 07:11:13;;;;;;;15.50;6.40;;;;;;;7.26;100.00;100629.53;1546653;92;21844;-78
2022/10/22 07:13:40;;;;;;;11.83;5.47;;;;;;;7.25;100.00;100633.19;1545482;90;21071;-79
2022/10/22 07:16:08;;;;;;;19.10;7.50;;;;;;;7.22;100.00;100626.26;1539987;90;21194;-79
2022/10/22 07:18:37;;;;;;;15.30;6.70;;;;;;;7.27;100.00;100628.52;1589952;89;21072;-81
2022/10/22 07:21:06;;;;;;;42.63;24.90;;;;;;;7.33;100.00;100629.81;1592325;89;21513;-75
2022/10/22 07:23:34;;;;;;;13.60;6.90;;;;;;;7.52;100.00;100628.53;1567001;90;21085;-75
2022/10/22 07:26:05;;;;;;;11.87;5.90;;;;;;;7.82;100.00;100624.08;1537138;90;21119;-74
2022/10/22 07:28:34;;;;;;;11.80;5.67;;;;;;;8.06;100.00;100627.74;1583307;89;21550;-74
2022/10/22 07:31:00;;;;;;;12.93;5.83;;;;;;;8.32;100.00;100619.95;1592019;89;21105;-73
2022/10/22 07:33:27;;;;;;;12.37;6.33;;;;;;;8.59;100.00;100613.02;1592162;89;21109;-73
2022/10/22 07:35:59;;;;;;;9.67;5.30;;;;;;;8.89;100.00;100614.65;1585325;89;21184;-75
2022/10/22 07:38:27;;;;;;;10.20;5.60;;;;;;;9.15;100.00;100608.59;1528348;92;21116;-75
2022/10/22 07:40:53;;;;;;;12.93;6.10;;;;;;;9.45;100.00;100597.17;1527554;93;21140;-72
2022/10/22 07:43:20;;;;;;;10.80;5.43;;;;;;;9.71;100.00;100584.31;1528257;93;21121;-74
2022/10/22 07:45:48;;;;;;;9.47;5.17;;;;;;;9.93;100.00;100587.91;1547249;91;21100;-76
2022/10/22 13:24:00;;;;;;;4.25;2.70;;;;;;;10.69;100.00;100742.07;1853888;77;23165;-80
2022/10/22 13:26:33;;;;;;;3.15;2.58;;;;;;;10.68;100.00;100744.92;1745649;82;21039;-80
2022/10/22 13:29:00;;;;;;;4.15;2.47;;;;;;;10.63;100.00;100751.66;1745873;82;21070;-81
2022/10/22 13:31:36;;;;;;;3.92;2.70;;;;;;;10.59;100.00;100750.27;1745960;81;21015;-81
2022/10/22 13:34:08;;;;;;;5.58;2.75;;;;;;;10.55;100.00;100749.37;1745463;82;21066;-79
2022/10/22 13:36:35;;;;;;;4.67;3.27;;;;;;;10.52;100.00;100747.84;1745802;82;21042;-79
2022/10/22 13:39:05;;;;;;;6.83;3.42;;;;;;;10.50;100.00;100743.09;1721319;82;21086;-80
2022/10/22 13:41:36;;;;;;;5.97;3.00;;;;;;;10.49;100.00;100736.48;1745371;82;21027;-82
2022/10/22 13:44:04;;;;;;;4.87;3.17;;;;;;;10.45;100.00;100740.84;1745761;82;21058;-82
2022/10/22 13:46:30;;;;;;;7.28;2.70;;;;;;;10.43;100.00;100736.59;1745617;82;21003;-80
2022/10/22 13:48:58;;;;;;;3.27;2.60;;;;;;;10.39;100.00;100736.53;1745511;82;21038;-79
2022/10/22 13:51:31;;;;;;;4.95;2.95;;;;;;;10.36;100.00;100735.51;1745353;82;21078;-79
2022/10/22 13:53:59;;;;;;;4.30;2.70;;;;;;;10.33;100.00;100728.54;1769089;81;21069;-76
2022/10/22 13:56:25;;;;;;;3.15;2.58;;;;;;;10.27;100.00;100726.43;1744494;81;20989;-80
2022/10/22 13:58:52;;;;;;;5.10;2.75;;;;;;;10.25;100.00;100721.17;1769250;81;21478;-79
2022/10/22 14:01:22;;;;;;;3.42;2.52;;;;;;;10.24;100.00;100724.86;1769645;81;21463;-80
2022/10/22 14:03:50;;;;;;;3.77;2.62;;;;;;;10.23;100.00;100719.61;1769420;81;21013;-79
2022/10/22 14:06:19;;;;;;;6.25;3.00;;;;;;;10.22;100.00;100717.41;1769438;81;21037;-79
2022/10/22 14:08:52;;;;;;;4.00;3.12;;;;;;;10.20;100.00;100711.83;1769389;81;21104;-81
2022/10/22 14:11:18;;;;;;;6.15;3.10;;;;;;;10.18;100.00;100716.50;1769349;81;21002;-79
2022/10/22 14:13:45;;;;;;;4.97;2.80;;;;;;;10.15;100.00;100708.22;1734165;81;21012;-79
2022/10/22 14:16:20;;;;;;;4.80;2.67;;;;;;;10.13;100.00;100709.35;1705798;83;21084;-79
2022/10/22 14:18:48;;;;;;;7.12;3.15;;;;;;;10.09;100.00;100704.75;1729783;82;21138;-79
2022/10/22 14:21:15;;;;;;;4.35;3.00;;;;;;;10.06;100.00;100699.67;1730547;83;20984;-80
2022/10/22 14:23:44;;;;;;;7.58;3.27;;;;;;;10.01;100.00;100696.06;1766791;80;21038;-80
2022/10/22 14:26:30;;;;;;;4.95;3.12;;;;;;;9.96;100.00;100697.02;1759597;81;21428;-80
2022/10/22 14:28:57;;;;;;;2.98;2.70;;;;;;;9.92;100.00;100692.09;1736365;83;21050;-81
2022/10/22 14:31:24;;;;;;;5.22;2.60;;;;;;;9.86;100.00;100687.63;1736347;83;21030;-82
2022/10/22 14:33:51;;;;;;;4.00;2.80;;;;;;;9.82;100.00;100686.21;1735745;83;21030;-81
2022/10/22 14:36:18;;;;;;;4.85;3.00;;;;;;;9.77;100.00;100691.20;1735201;83;21082;-80
2022/10/22 14:38:46;;;;;;;4.85;3.20;;;;;;;9.71;100.00;100686.42;1711071;83;21017;-81
2022/10/22 14:41:22;;;;;;;6.12;3.45;;;;;;;9.65;100.00;100677.55;1735727;83;21001;-81
2022/10/22 14:43:50;;;;;;;11.12;4.50;;;;;;;9.58;100.00;100679.15;1735411;83;21010;-81
2022/10/22 14:46:17;;;;;;;12.15;4.22;;;;;;;9.49;100.00;100672.31;1735779;83;21037;-81
2022/10/22 14:48:44;;;;;;;3.92;3.10;;;;;;;9.45;100.00;100670.05;1735304;83;21010;-80
2022/10/22 14:51:20;;;;;;;6.05;3.47;;;;;;;9.37;100.00;100658.66;1735570;83;21044;-78
2022/10/22 14:53:47;;;;;;;4.70;3.17;;;;;;;9.29;100.00;100646.39;1735694;83;21554;-81
2022/10/22 14:56:17;;;;;;;7.17;3.23;;;;;;;9.21;100.00;100643.59;1731836;83;21463;-80
2022/10/22 14:58:44;;;;;;;4.30;2.97;;;;;;;9.15;100.00;100650.41;1696005;85;21514;-80
2022/10/22 15:01:11;;;;;;;5.08;2.98;;;;;;;9.08;100.00;100646.13;1696045;83;21063;-80
2022/10/22 15:03:38;;;;;;;6.30;3.43;;;;;;;9.02;100.00;100637.76;1695781;85;21076;-80
2022/10/22 15:06:06;;;;;;;5.60;3.27;;;;;;;8.97;100.00;100637.34;1695639;85;21116;-82
2022/10/22 15:08:35;;;;;;;8.63;3.90;;;;;;;8.91;100.00;100637.44;1695915;85;21097;-81
2022/10/22 15:11:07;;;;;;;8.67;3.70;;;;;;;8.84;100.00;100618.78;1694411;85;21521;-82
2022/10/22 15:13:34;;;;;;;7.10;3.60;;;;;;;8.81;100.00;100615.02;1696151;85;21513;-80
2022/10/22 15:16:06;;;;;;;8.43;3.93;;;;;;;8.77;100.00;100615.81;1642343;86;21038;-79
2022/10/22 15:18:33;;;;;;;7.63;3.70;;;;;;;8.73;100.00;100621.16;1683410;84;21068;-81
2022/10/22 15:21:04;;;;;;;8.73;4.20;;;;;;;8.68;100.00;100616.19;1685795;85;21009;-80
2022/10/22 15:23:32;;;;;;;5.10;3.30;;;;;;;8.62;100.00;100610.52;1698678;83;21526;-80
2022/10/22 15:25:59;;;;;;;7.23;3.73;;;;;;;8.60;100.00;100608.47;1775448;80;21049;-80
2022/10/22 15:28:26;;;;;;;11.57;3.47;;;;;;;8.58;100.00;100608.61;1776007;80;20974;-80
2022/10/22 15:30:57;;;;;;;8.10;3.83;;;;;;;8.55;100.00;100611.58;1776124;80;21483;-81
2022/10/22 15:33:24;;;;;;;7.40;4.00;;;;;;;8.53;100.00;100617.62;1775705;80;21082;-81
2022/10/22 15:35:51;;;;;;;12.33;4.77;;;;;;;8.50;100.00;100612.03;1775898;80;21014;-78
2022/10/22 15:38:18;;;;;;;10.17;4.50;;;;;;;8.46;100.00;100611.94;1775595;81;20966;-79
2022/10/22 15:40:45;;;;;;;13.67;5.53;;;;;;;8.43;100.00;100605.98;1775815;81;21049;-81
2022/10/22 15:43:11;;;;;;;13.23;5.93;;;;;;;8.38;100.00;100606.91;1776032;80;21034;-78
2022/10/22 15:45:38;;;;;;;15.93;5.67;;;;;;;8.31;100.00;100598.55;1775721;80;21037;-80
2022/10/22 15:48:06;;;;;;;12.23;5.60;;;;;;;8.23;100.00;100592.50;1754282;81;21015;-81
2022/10/22 15:50:38;;;;;;;11.53;5.50;;;;;;;8.18;100.00;100592.94;1776026;80;20970;-79
2022/10/22 15:53:05;;;;;;;11.22;5.05;;;;;;;8.12;100.00;100590.80;1776205;80;21455;-81
2022/10/22 15:55:32;;;;;;;11.33;4.90;;;;;;;8.09;100.00;100596.50;1775724;81;20992;-79
2022/10/22 15:57:59;;;;;;;10.17;4.40;;;;;;;8.07;100.00;100596.27;1775896;80;21439;-81
2022/10/22 16:00:26;;;;;;;9.47;4.57;;;;;;;8.04;100.00;100591.15;1775524;80;21621;-79
2022/10/22 16:02:54;;;;;;;8.03;4.20;;;;;;;8.03;100.00;100597.05;1775369;80;21022;-80
2022/10/22 16:05:20;;;;;;;8.00;4.80;;;;;;;8.01;100.00;100595.50;1775634;80;21011;-79
2022/10/22 16:07:48;;;;;;;10.57;4.30;;;;;;;7.99;100.00;100595.63;1775700;80;21043;-81
2022/10/22 16:10:15;;;;;;;9.10;4.30;;;;;;;7.95;100.00;100591.02;1775953;80;21066;-80
2022/10/22 16:12:42;;;;;;;10.23;4.40;;;;;;;7.94;100.00;100587.13;1785539;80;21044;-81
2022/10/22 16:15:10;;;;;;;6.77;4.10;;;;;;;7.91;100.00;100579.31;1798930;79;21041;-80
2022/10/22 16:17:37;;;;;;;9.47;4.27;;;;;;;7.86;100.00;100577.06;1798800;80;21091;-78
2022/10/22 16:20:05;;;;;;;7.80;4.23;;;;;;;7.85;100.00;100566.43;1798360;79;21044;-80
2022/10/22 16:22:33;;;;;;;6.23;3.40;;;;;;;7.82;100.00;100561.32;1798388;80;21013;-79
2022/10/22 16:24:59;;;;;;;9.20;4.00;;;;;;;7.79;100.00;100558.39;1798365;80;21005;-80
2022/10/22 16:27:26;;;;;;;6.60;3.80;;;;;;;7.77;100.00;100569.33;1798990;79;21017;-78
2022/10/22 16:29:53;;;;;;;7.17;3.40;;;;;;;7.74;100.00;100569.60;1798908;80;20981;-80
2022/10/22 16:32:20;;;;;;;3.87;2.93;;;;;;;7.72;100.00;100574.75;1798599;80;20973;-80
2022/10/22 16:34:46;;;;;;;7.03;3.60;;;;;;;7.71;100.00;100574.41;1798912;80;21048;-80
2022/10/22 16:37:13;;;;;;;8.60;3.70;;;;;;;7.69;100.00;100577.75;1798850;80;21025;-81
2022/10/22 16:39:40;;;;;;;4.77;3.37;;;;;;;7.68;100.00;100587.64;1798916;80;21020;-81
2022/10/22 16:42:07;;;;;;;6.30;3.40;;;;;;;7.69;100.00;100579.09;1798723;80;21115;-81
2022/10/22 16:44:33;;;;;;;5.37;3.30;;;;;;;7.71;100.00;100575.77;1798812;80;21099;-79
2022/10/22 16:47:00;;;;;;;5.00;3.40;;;;;;;7.71;100.00;100572.56;1798668;80;21025;-82
2022/10/22 16:49:26;;;;;;;5.87;3.50;;;;;;;7.74;100.00;100566.06;1798770;80;21044;-79
2022/10/22 16:51:53;;;;;;;7.33;3.40;;;;;;;7.75;100.00;100565.06;1799037;80;20989;-78
2022/10/22 16:54:20;;;;;;;5.57;3.50;;;;;;;7.76;100.00;100565.42;1798384;79;21033;-82
2022/10/22 16:56:47;;;;;;;6.97;3.50;;;;;;;7.77;100.00;100560.38;1799075;80;21013;-80
2022/10/22 16:59:14;;;;;;;6.50;3.37;;;;;;;7.79;100.00;100557.05;1798782;80;20985;-79
2022/10/22 17:01:41;;;;;;;4.23;3.00;;;;;;;7.80;100.00;100558.77;1798379;80;21015;-80
2022/10/22 17:04:08;;;;;;;4.63;2.90;;;;;;;7.80;100.00;100563.64;1798618;79;21114;-80
2022/10/22 17:06:36;;;;;;;3.53;2.70;;;;;;;7.82;100.00;100557.28;1798788;80;20974;-80
2022/10/22 17:09:03;;;;;;;4.67;2.70;;;;;;;7.81;100.00;100553.75;1798856;80;21047;-81